Time;durP1;ratioP1;P1;durP2;ratioP2;P2;SDS_P1;SDS_P2;PMS_P1;PMS_P2;Temp;Humidity;BMP_temperature;BMP_pressure;BME280_temperature;BME280_humidity;BME280_pressure;Samples;Min_cycle;Max_cycle;Signal;HPM_P1;HPM_P2
2022/08/22 00:07:19;;;;;;;;;;;;;;;20.35;60.18;100646.56;3956437;32;15721641;-64
2022/08/22 00:10:00;;;;;;;;;;;;;;;20.35;60.18;100646.56;4442078;32;20451;-66
2022/08/22 00:12:46;;;;;;;;;;;;;;;19.87;60.93;100640.66;4440614;32;20001;-67
2022/08/22 00:15:15;;;;;;;;;;;;;;;19.75;60.83;100645.50;4425268;32;20382;-67
2022/08/22 00:20:29;;;;;;;;;;;;;;;20.29;59.93;100640.03;3956367;32;15722522;-65
2022/08/22 00:25:46;;;;;;;;;;;;;;;20.53;59.23;100649.47;3977960;31;15716438;-66
2022/08/22 00:28:32;;;;;;;;;;;;;;;20.54;59.19;100647.75;4460788;32;20759;-64
2022/08/22 00:31:17;;;;;;;;;;;;;;;20.16;59.95;100651.09;4463975;32;19957;-68
2022/08/22 00:39:09;;;;;;;;;;;;;;;20.39;58.59;100656.47;3967531;31;15720150;-65
2022/08/22 00:41:44;;;;;;;;;;;;;;;20.39;58.59;100656.47;4449015;32;19976;-69
2022/08/22 00:44:29;;;;;;;;;;;;;;;19.91;59.03;100646.94;4447944;32;19963;-66
2022/08/22 00:50:06;;;;;;;;;;;;;;;20.02;63.04;100652.75;3967963;31;15716158;-69
2022/08/22 00:52:52;;;;;;;;;;;;;;;20.10;62.84;100651.03;4446423;32;20013;-66
2022/08/22 00:55:33;;;;;;;;;;;;;;;20.12;63.41;100647.66;4444024;32;19949;-66
2022/08/22 00:58:12;;;;;;;;;;;;;;;20.23;63.02;100639.19;4451082;32;20001;-66
2022/08/22 01:00:41;;;;;;;;;;;;;;;20.31;62.10;100641.06;4446964;32;20629;-66
2022/08/22 01:06:06;;;;;;;;;;;;;;;20.95;61.33;100638.38;3956634;32;15721377;-66
2022/08/22 01:08:38;;;;;;;;;;;;;;;20.95;61.33;100638.38;4440359;32;20460;-65
2022/08/22 01:13:51;;;;;;;;;;;;;;;21.02;60.12;100632.19;3950901;32;15859429;-66
2022/08/22 01:19:15;;;;;;;;;;;;;;;21.02;59.56;100634.28;3955875;32;15725581;-65
2022/08/22 01:24:36;;;;;;;;;;;;;;;21.06;58.97;100627.00;3956566;32;15723529;-67
2022/08/22 01:35:19;;;;;;;;;;;;;;;20.99;59.67;100630.34;3955521;32;15722657;-66
2022/08/22 01:40:41;;;;;;;;;;;;;;;20.85;60.85;100631.28;3976364;31;15716050;-66
2022/08/22 01:46:09;;;;;;;;;;;;;;;20.52;61.62;100628.22;3956617;32;15723557;-67
2022/08/22 01:48:43;;;;;;;;;;;;;;;20.41;60.53;100638.81;4438533;32;19992;-64
2022/08/22 01:51:12;;;;;;;;;;;;;;;20.38;61.66;100626.34;4440845;32;21450;-66
2022/08/22 01:53:42;;;;;;;;;;;;;;;20.40;61.16;100631.53;4440371;32;19953;-66
2022/08/22 01:56:11;;;;;;;;;;;;;;;20.41;61.46;100619.59;4439084;32;20692;-67
2022/08/22 01:58:42;;;;;;;;;;;;;;;20.42;61.78;100618.28;4441183;32;20428;-67
2022/08/22 02:01:23;;;;;;;;;;;;;;;20.40;61.62;100620.88;4442156;32;20366;-67
2022/08/22 02:06:35;;;;;;;;;;;;;;;20.64;60.76;100601.28;3970160;32;15725919;-68
2022/08/22 02:09:05;;;;;;;;;;;;;;;20.64;60.76;100601.28;4454765;32;19966;-68
2022/08/22 02:14:26;;;;;;;;;;;;;;;20.55;60.30;100598.62;3970819;32;15728783;-68
2022/08/22 02:16:56;;;;;;;;;;;;;;;20.55;60.30;100598.62;4456171;32;19929;-68
2022/08/22 02:19:28;;;;;;;;;;;;;;;19.94;62.90;100582.31;4454654;32;19981;-68
2022/08/22 02:27:32;;;;;;;;;;;;;;;20.05;64.42;100593.81;3969409;32;15726804;-68
2022/08/22 02:43:16;;;;;;;;;;;;;;;19.63;65.05;100580.22;3970173;32;15724690;-69
2022/08/22 02:50:55;;;;;;;;;;;;;;;19.28;65.73;100580.41;3956008;32;15722610;-68
2022/08/22 02:56:11;;;;;;;;;;;;;;;19.27;65.77;100590.22;3971413;32;15722317;-67
2022/08/22 03:01:20;;;;;;;;;;;;;;;19.26;65.80;100588.66;3969566;32;15728634;-67
2022/08/22 03:03:46;;;;;;;;;;;;;;;19.26;65.80;100588.66;4448538;32;20133;-67
2022/08/22 03:06:31;;;;;;;;;;;;;;;18.82;67.29;100575.91;4447410;32;19957;-68
2022/08/22 03:09:17;;;;;;;;;;;;;;;18.82;67.37;100575.91;4449180;32;19981;-67
2022/08/22 03:11:45;;;;;;;;;;;;;;;18.71;67.81;100575.75;4450017;32;19973;-67
2022/08/22 03:14:17;;;;;;;;;;;;;;;18.74;67.85;100580.47;4450920;32;19945;-67
2022/08/22 03:17:02;;;;;;;;;;;;;;;18.78;67.29;100572.50;4449302;32;19957;-68
2022/08/22 03:19:47;;;;;;;;;;;;;;;18.90;67.13;100569.28;4448820;32;19980;-67
2022/08/22 03:22:16;;;;;;;;;;;;;;;18.90;67.37;100571.38;4451584;32;20045;-68
2022/08/22 03:27:33;;;;;;;;;;;;;;;19.40;65.52;100575.09;3971372;32;15724648;-68
2022/08/22 03:30:06;;;;;;;;;;;;;;;19.41;65.53;100577.16;4450452;32;19984;-69
2022/08/22 03:38:12;;;;;;;;;;;;;;;19.08;63.60;100573.88;3972048;32;15722709;-68
2022/08/22 03:40:57;;;;;;;;;;;;;;;19.08;63.60;100573.88;4455129;32;19957;-68
2022/08/22 03:48:54;;;;;;;;;;;;;;;18.66;64.71;100579.34;3970820;32;15722525;-68
2022/08/22 03:51:39;;;;;;;;;;;;;;;18.46;65.10;100573.59;4450092;32;19973;-68
2022/08/22 03:54:14;;;;;;;;;;;;;;;18.46;64.57;100570.75;4451798;32;19961;-68
2022/08/22 03:56:50;;;;;;;;;;;;;;;18.25;64.17;100563.47;4448275;32;19930;-68
2022/08/22 03:59:36;;;;;;;;;;;;;;;18.27;64.06;100561.66;4447446;32;20052;-68
2022/08/22 04:05:14;;;;;;;;;;;;;;;18.64;64.31;100548.50;3970506;32;15723709;-68
2022/08/22 04:10:38;;;;;;;;;;;;;;;18.61;64.82;100543.00;3979229;31;15717970;-68
2022/08/22 04:13:24;;;;;;;;;;;;;;;18.61;64.82;100543.00;4462166;32;19929;-68
2022/08/22 04:29:14;;;;;;;;;;;;;;;18.26;64.75;100533.69;3972957;32;15725657;-68
2022/08/22 04:31:45;;;;;;;;;;;;;;;18.26;64.75;100533.69;4437003;32;19961;-68
2022/08/22 04:34:16;;;;;;;;;;;;;;;17.76;65.62;100530.06;4450240;32;20001;-68
2022/08/22 04:36:47;;;;;;;;;;;;;;;17.63;66.09;100538.13;4450795;32;20033;-68
2022/08/22 04:39:19;;;;;;;;;;;;;;;17.72;65.60;100538.03;4451755;32;19956;-69
2022/08/22 04:41:47;;;;;;;;;;;;;;;17.76;65.30;100539.38;4451273;32;19962;-68
2022/08/22 04:44:18;;;;;;;;;;;;;;;17.66;65.50;100535.09;4451257;32;20067;-68
2022/08/22 04:46:48;;;;;;;;;;;;;;;17.64;65.00;100531.94;4451492;32;19977;-68
2022/08/22 04:49:20;;;;;;;;;;;;;;;17.65;65.12;100535.59;4447605;32;19958;-68
2022/08/22 04:51:51;;;;;;;;;;;;;;;17.66;64.85;100532.25;4450660;32;20012;-68
2022/08/22 04:59:35;;;;;;;;;;;;;;;18.21;63.30;100546.56;3970596;32;15724697;-67
2022/08/22 05:02:05;;;;;;;;;;;;;;;18.21;63.30;100546.56;4449255;32;19992;-68
2022/08/22 05:04:35;;;;;;;;;;;;;;;17.81;63.43;100540.75;4436575;32;19930;-68
2022/08/22 05:07:06;;;;;;;;;;;;;;;17.84;62.66;100543.41;4453483;32;19977;-68
2022/08/22 05:09:34;;;;;;;;;;;;;;;17.98;62.92;100543.88;4451129;32;19954;-68
2022/08/22 05:12:04;;;;;;;;;;;;;;;18.06;63.00;100527.94;4449198;32;19996;-68
2022/08/22 05:14:38;;;;;;;;;;;;;;;18.02;62.68;100533.84;4447996;32;19950;-68
2022/08/22 05:17:06;;;;;;;;;;;;;;;18.13;63.37;100527.53;4452406;32;19945;-68
2022/08/22 05:19:34;;;;;;;;;;;;;;;18.15;63.61;100528.59;4448143;32;19930;-68
2022/08/22 05:22:00;;;;;;;;;;;;;;;18.29;63.52;100533.47;4451879;32;19952;-68
2022/08/22 05:24:31;;;;;;;;;;;;;;;18.14;63.04;100535.59;4450094;32;19926;-68
2022/08/22 05:27:02;;;;;;;;;;;;;;;18.12;63.64;100540.97;4449106;32;19958;-68
2022/08/22 05:29:29;;;;;;;;;;;;;;;18.15;63.56;100544.91;4446265;32;19944;-68
2022/08/22 05:34:33;;;;;;;;;;;;;;;18.72;61.46;100546.75;3970284;32;15722642;-68
2022/08/22 05:37:05;;;;;;;;;;;;;;;18.72;61.46;100546.75;4456955;32;19980;-68
2022/08/22 05:39:31;;;;;;;;;;;;;;;18.41;61.65;100545.84;4454313;32;19969;-68
2022/08/22 05:41:59;;;;;;;;;;;;;;;18.57;61.38;100540.38;4456375;32;19934;-68
2022/08/22 05:44:27;;;;;;;;;;;;;;;18.67;60.92;100544.63;4456999;32;19971;-68
2022/08/22 05:46:58;;;;;;;;;;;;;;;18.79;60.57;100552.06;4456311;32;20001;-68
2022/08/22 05:52:25;;;;;;;;;;;;;;;19.63;57.40;100560.22;3971460;32;15727655;-66
2022/08/22 05:54:54;;;;;;;;;;;;;;;19.63;57.40;100560.22;4454612;32;20753;-66
2022/08/22 05:57:24;;;;;;;;;;;;;;;19.43;57.19;100560.31;4456924;32;20000;-66
2022/08/22 05:59:53;;;;;;;;;;;;;;;19.52;56.93;100557.28;4455456;32;19998;-66
2022/08/22 06:02:21;;;;;;;;;;;;;;;19.52;56.82;100560.91;4457262;32;19971;-67
2022/08/22 06:04:50;;;;;;;;;;;;;;;19.65;56.61;100557.66;4456649;32;19973;-66
2022/08/22 06:12:42;;;;;;;;;;;;;;;20.35;55.71;100547.31;3971278;32;15724389;-68
2022/08/22 06:15:27;;;;;;;;;;;;;;;20.35;55.71;100547.31;4448944;32;19926;-68
2022/08/22 06:17:56;;;;;;;;;;;;;;;20.01;55.85;100547.56;4435811;32;19973;-68
2022/08/22 06:20:26;;;;;;;;;;;;;;;20.03;55.60;100551.47;4451640;32;19985;-68
2022/08/22 06:22:53;;;;;;;;;;;;;;;20.03;55.19;100548.63;4436075;32;20070;-68
2022/08/22 06:25:22;;;;;;;;;;;;;;;19.97;55.32;100544.94;4434515;32;19937;-68
2022/08/22 06:27:48;;;;;;;;;;;;;;;19.91;55.73;100551.91;4447936;32;19981;-68
2022/08/22 06:30:15;;;;;;;;;;;;;;;19.96;56.13;100546.25;4449080;32;19958;-68
2022/08/22 06:32:44;;;;;;;;;;;;;;;19.87;57.24;100543.56;4448010;32;20005;-69
2022/08/22 06:36:29;;;;;;;;;;;;;;;19.90;57.42;100547.47;4449112;32;19993;-68
2022/08/22 06:38:16;;;;;;;;;;;;;;;19.91;57.37;100557.62;4444242;32;20022;-68
2022/08/22 06:40:42;;;;;;;;;;;;;;;19.91;58.27;100544.09;4437692;32;20459;-68
2022/08/22 06:43:10;;;;;;;;;;;;;;;19.89;60.71;100538.16;4444575;32;19949;-68
2022/08/22 06:45:36;;;;;;;;;;;;;;;19.67;61.11;100529.41;4443065;32;20016;-68
2022/08/22 06:50:42;;;;;;;;;;;;;;;19.63;62.72;100531.69;3967656;32;15722670;-67
2022/08/22 06:53:12;;;;;;;;;;;;;;;19.63;62.72;100531.69;4451041;32;20011;-68
2022/08/22 06:55:39;;;;;;;;;;;;;;;18.94;63.79;100512.03;4450014;32;19960;-67
2022/08/22 06:58:10;;;;;;;;;;;;;;;18.95;63.57;100511.53;4445804;32;19992;-67
2022/08/22 07:00:39;;;;;;;;;;;;;;;18.98;63.60;100512.59;4441469;32;20379;-67
2022/08/22 07:03:11;;;;;;;;;;;;;;;18.90;64.75;100514.34;4448554;32;20023;-67
2022/08/22 07:05:38;;;;;;;;;;;;;;;18.92;64.99;100517.44;4450133;32;19977;-68
2022/08/22 07:08:07;;;;;;;;;;;;;;;19.09;65.30;100518.44;4448939;32;20375;-68
2022/08/22 07:10:33;;;;;;;;;;;;;;;19.16;64.30;100515.91;4446257;32;20009;-68
2022/08/22 07:12:59;;;;;;;;;;;;;;;19.32;63.05;100509.62;4448705;32;19989;-67
2022/08/22 07:18:03;;;;;;;;;;;;;;;20.28;60.68;100515.56;3963249;32;15722432;-68
2022/08/22 07:20:33;;;;;;;;;;;;;;;20.28;60.68;100515.56;4440992;32;20020;-68
2022/08/22 07:23:03;;;;;;;;;;;;;;;20.00;59.25;100506.03;4442183;32;20026;-68
2022/08/22 07:25:29;;;;;;;;;;;;;;;20.14;62.14;100505.88;4443172;32;20307;-68
2022/08/22 07:28:12;;;;;;;;;;;;;;;20.34;60.20;100485.72;4445508;32;20449;-68
2022/08/22 07:30:52;;;;;;;;;;;;;;;20.45;59.61;100491.50;4442239;32;19958;-68
2022/08/22 07:33:25;;;;;;;;;;;;;;;20.67;60.53;100485.88;4443347;32;19992;-68
2022/08/22 07:35:57;;;;;;;;;;;;;;;20.81;59.16;100484.09;4443433;32;19953;-69
2022/08/22 07:41:04;;;;;;;;;;;;;;;21.53;54.75;100494.41;3965565;32;15740675;-68
2022/08/22 07:48:49;;;;;;;;;;;;;;;21.63;53.17;100492.81;3965522;32;15725648;-68
2022/08/22 07:51:16;;;;;;;;;;;;;;;21.91;53.17;100490.00;4450301;32;19964;-68
2022/08/22 07:56:22;;;;;;;;;;;;;;;23.35;49.03;100493.09;3965879;32;15721639;-68
2022/08/22 07:58:53;;;;;;;;;;;;;;;23.35;49.03;100493.09;4444527;32;19961;-68
2022/08/22 08:01:20;;;;;;;;;;;;;;;23.22;50.16;100487.13;4444680;32;19933;-68
2022/08/22 08:03:52;;;;;;;;;;;;;;;23.38;50.02;100483.41;4445492;32;19952;-68
2022/08/22 08:06:22;;;;;;;;;;;;;;;23.33;48.74;100487.09;4444271;32;19973;-69
2022/08/22 08:08:49;;;;;;;;;;;;;;;23.64;48.07;100489.44;4440934;32;19945;-68
2022/08/22 08:11:15;;;;;;;;;;;;;;;23.82;47.49;100494.53;4441664;32;20008;-68
2022/08/22 08:13:43;;;;;;;;;;;;;;;24.14;47.04;100492.66;4440618;32;20043;-68
2022/08/22 08:16:14;;;;;;;;;;;;;;;24.44;46.01;100489.72;4438280;32;19988;-69
2022/08/22 08:18:40;;;;;;;;;;;;;;;24.65;45.27;100485.81;4437495;32;19993;-68
2022/08/22 08:21:07;;;;;;;;;;;;;;;24.80;45.59;100486.16;4442360;32;19981;-68
2022/08/22 08:23:36;;;;;;;;;;;;;;;25.04;45.52;100488.94;4442800;32;20185;-68
2022/08/22 08:28:43;;;;;;;;;;;;;;;25.53;41.78;100488.75;3973484;31;15730855;-68
2022/08/22 08:31:13;;;;;;;;;;;;;;;25.53;41.78;100488.75;4445164;32;19992;-68
2022/08/22 08:33:41;;;;;;;;;;;;;;;25.09;42.98;100482.34;4445784;32;19997;-69
2022/08/22 08:36:17;;;;;;;;;;;;;;;25.17;42.51;100480.41;4445441;32;19997;-68
2022/08/22 08:38:47;;;;;;;;;;;;;;;25.15;42.86;100480.16;4445285;32;20322;-68
2022/08/22 08:54:50;;;;;;;;;;;;;;;25.67;43.03;100473.28;3965003;32;15722478;-68
2022/08/22 08:57:35;;;;;;;;;;;;;;;25.68;43.03;100480.41;4449387;32;19953;-68
2022/08/22 09:03:00;;;;;;;;;;;;;;;26.76;41.69;100475.19;3963913;32;15743165;-68
2022/08/22 09:11:08;;;;;;;;;;;;;;;27.34;40.57;100460.50;3958263;32;15723630;-68
2022/08/22 09:16:36;;;;;;;;;;;;;;;27.06;41.59;100464.78;3965702;32;15722636;-69
2022/08/22 09:19:14;;;;;;;;;;;;;;;27.06;41.59;100464.78;4450220;32;19996;-69
2022/08/22 09:26:56;;;;;;;;;;;;;;;27.59;40.91;100448.06;3967316;32;15721920;-68
2022/08/22 09:29:41;;;;;;;;;;;;;;;27.59;40.91;100448.06;4446644;32;19949;-68
2022/08/22 09:32:15;;;;;;;;;;;;;;;27.20;40.97;100439.53;4443870;32;20006;-69
2022/08/22 09:37:29;;;;;;;;;;;;;;;28.35;39.03;100444.41;3970471;32;15724525;-68
2022/08/22 09:40:02;;;;;;;;;;;;;;;28.35;39.03;100444.41;4448631;32;19922;-68
2022/08/22 09:42:47;;;;;;;;;;;;;;;28.57;38.77;100443.03;4447305;32;19926;-68
2022/08/22 09:45:33;;;;;;;;;;;;;;;29.02;37.61;100446.09;4450274;32;19941;-68
2022/08/22 09:53:25;;;;;;;;;;;;;;;29.73;36.49;100434.28;3971677;32;15724597;-67
2022/08/22 09:55:54;;;;;;;;;;;;;;;29.73;36.49;100434.28;4449310;32;19957;-67
2022/08/22 10:01:13;;;;;;;;;;;;;;;30.00;35.93;100429.66;3970763;32;15721974;-68
2022/08/22 10:03:58;;;;;;;;;;;;;;;30.00;35.93;100429.66;4454957;32;19934;-68
2022/08/22 10:06:27;;;;;;;;;;;;;;;29.86;35.20;100424.63;4453821;32;19950;-68
2022/08/22 10:09:14;;;;;;;;;;;;;;;30.03;35.14;100427.72;4455538;32;19971;-68
2022/08/22 10:11:44;;;;;;;;;;;;;;;30.21;35.00;100420.75;4452571;32;20028;-68
2022/08/22 10:14:19;;;;;;;;;;;;;;;30.25;34.87;100409.53;4454153;32;19965;-68
2022/08/22 10:17:05;;;;;;;;;;;;;;;30.50;34.50;100405.38;4455534;32;19957;-68
2022/08/22 10:19:35;;;;;;;;;;;;;;;30.08;34.86;100412.22;4438430;32;20021;-68
2022/08/22 10:22:14;;;;;;;;;;;;;;;29.67;35.37;100398.16;4453623;32;20001;-68
2022/08/22 10:24:47;;;;;;;;;;;;;;;29.36;35.91;100402.38;4454329;32;19921;-68
2022/08/22 10:27:14;;;;;;;;;;;;;;;29.26;36.34;100404.28;4456615;32;19986;-68
2022/08/22 10:30:00;;;;;;;;;;;;;;;29.55;35.86;100399.84;4453029;32;19952;-68
2022/08/22 10:32:45;;;;;;;;;;;;;;;30.03;35.41;100399.47;4453393;32;19997;-68
2022/08/22 10:35:31;;;;;;;;;;;;;;;30.08;35.01;100401.41;4453485;32;20008;-68
2022/08/22 10:37:59;;;;;;;;;;;;;;;30.17;34.95;100405.84;4453800;32;20120;-68
2022/08/22 10:43:09;;;;;;;;;;;;;;;30.45;34.88;100405.59;3971832;32;15729624;-69
2022/08/22 10:45:38;;;;;;;;;;;;;;;30.45;34.88;100405.59;4442201;32;19933;-69
2022/08/22 10:50:46;;;;;;;;;;;;;;;30.38;34.20;100406.41;3970821;32;15722668;-69
2022/08/22 10:53:35;;;;;;;;;;;;;;;30.38;34.20;100406.41;4453449;32;19993;-69
2022/08/22 10:56:10;;;;;;;;;;;;;;;29.54;34.87;100404.13;4450335;32;19981;-69
2022/08/22 10:58:39;;;;;;;;;;;;;;;29.77;34.73;100394.09;4434781;32;20008;-69
2022/08/22 11:01:07;;;;;;;;;;;;;;;29.97;34.25;100404.69;4434804;32;19926;-69
2022/08/22 11:03:41;;;;;;;;;;;;;;;29.86;33.97;100395.63;4452445;32;19965;-69
2022/08/22 11:06:13;;;;;;;;;;;;;;;29.99;33.83;100399.09;4451645;32;19944;-69
2022/08/22 11:08:59;;;;;;;;;;;;;;;30.11;33.67;100411.84;4449830;32;20000;-69
2022/08/22 11:19:20;;;;;;;;;;;;;;;31.17;32.90;100388.97;3969289;32;15723601;-69
2022/08/22 11:24:44;;;;;;;;;;;;;;;31.13;32.30;100390.78;3970630;32;15722702;-69
2022/08/22 11:30:12;;;;;;;;;;;;;;;30.24;33.62;100390.53;3969265;32;15723653;-67
2022/08/22 11:32:43;;;;;;;;;;;;;;;30.24;33.62;100390.53;4448995;32;19988;-68
2022/08/22 11:35:19;;;;;;;;;;;;;;;30.00;34.36;100396.97;4450563;32;19977;-67
2022/08/22 11:37:49;;;;;;;;;;;;;;;30.09;34.33;100396.34;4448404;32;19949;-68
2022/08/22 11:43:00;;;;;;;;;;;;;;;30.93;32.23;100392.63;3970353;32;15721787;-67
2022/08/22 11:45:28;;;;;;;;;;;;;;;30.93;32.23;100392.63;4447733;32;19960;-67
2022/08/22 11:48:01;;;;;;;;;;;;;;;30.26;33.65;100387.84;4448368;32;19981;-67
2022/08/22 11:53:22;;;;;;;;;;;;;;;31.53;32.37;100374.78;3992648;31;15716432;-67
2022/08/22 11:58:30;;;;;;;;;;;;;;;31.78;31.14;100374.78;3965154;32;15834570;-69
2022/08/22 12:01:14;;;;;;;;;;;;;;;31.78;31.14;100374.78;4456674;32;19937;-69
2022/08/22 12:06:33;;;;;;;;;;;;;;;33.20;28.61;100369.44;3969858;32;15722688;-69
2022/08/22 12:09:18;;;;;;;;;;;;;;;33.20;28.61;100369.44;4447400;32;20077;-68
2022/08/22 12:11:54;;;;;;;;;;;;;;;33.14;28.61;100371.06;4451287;32;20207;-69
2022/08/22 12:14:39;;;;;;;;;;;;;;;33.09;27.48;100363.34;4448981;32;19997;-69
2022/08/22 12:17:12;;;;;;;;;;;;;;;32.77;28.32;100364.38;4450186;32;20007;-69
2022/08/22 12:19:52;;;;;;;;;;;;;;;32.16;29.11;100361.41;4448806;32;19945;-69
2022/08/22 12:22:37;;;;;;;;;;;;;;;32.30;29.10;100350.16;4448368;32;20193;-69
2022/08/22 12:28:02;;;;;;;;;;;;;;;31.91;29.27;100346.13;3969567;32;15723725;-69
2022/08/22 12:30:48;;;;;;;;;;;;;;;31.91;29.27;100346.13;4441143;32;19973;-69
2022/08/22 12:33:23;;;;;;;;;;;;;;;31.27;29.83;100336.78;4440911;32;19969;-69
2022/08/22 12:36:08;;;;;;;;;;;;;;;31.48;29.59;100338.00;4440634;32;19941;-69
2022/08/22 12:38:44;;;;;;;;;;;;;;;31.13;29.63;100338.47;4440934;32;19937;-69
2022/08/22 12:41:30;;;;;;;;;;;;;;;30.93;29.84;100337.41;4441554;32;19977;-69
2022/08/22 12:49:26;;;;;;;;;;;;;;;30.47;30.90;100333.94;3969348;32;15721531;-69
2022/08/22 12:54:48;;;;;;;;;;;;;;;29.22;32.91;100332.19;3970954;32;15722386;-68
2022/08/22 12:57:22;;;;;;;;;;;;;;;29.50;32.18;100329.09;4452533;32;19975;-68
2022/08/22 12:59:48;;;;;;;;;;;;;;;29.53;32.32;100335.87;4450821;32;20013;-68
2022/08/22 13:05:07;;;;;;;;;;;;;;;30.41;30.99;100327.59;3966292;32;15724602;-69
2022/08/22 13:07:35;;;;;;;;;;;;;;;30.41;30.99;100327.59;4451066;32;19973;-69
2022/08/22 13:10:06;;;;;;;;;;;;;;;30.53;30.54;100319.22;4451876;32;19987;-68
2022/08/22 13:12:37;;;;;;;;;;;;;;;30.98;29.80;100315.31;4453100;32;19993;-69
2022/08/22 13:15:12;;;;;;;;;;;;;;;31.40;29.17;100319.06;4453869;32;19980;-69
2022/08/22 13:17:42;;;;;;;;;;;;;;;31.44;28.67;100317.28;4453651;32;19993;-69
2022/08/22 13:20:10;;;;;;;;;;;;;;;31.67;28.70;100314.94;4451745;32;20004;-68
2022/08/22 13:22:38;;;;;;;;;;;;;;;32.78;27.18;100322.19;4454165;32;19961;-69
2022/08/22 13:25:06;;;;;;;;;;;;;;;32.58;26.32;100329.28;4453803;32;19945;-69
2022/08/22 13:27:35;;;;;;;;;;;;;;;33.31;25.66;100333.09;4453242;32;19937;-69
2022/08/22 13:30:05;;;;;;;;;;;;;;;33.68;25.01;100338.28;4451479;32;19961;-69
2022/08/22 13:32:34;;;;;;;;;;;;;;;33.68;24.94;100332.47;4451141;32;19957;-69
2022/08/22 13:35:00;;;;;;;;;;;;;;;33.82;25.01;100341.56;4449629;32;20065;-69
2022/08/22 13:37:30;;;;;;;;;;;;;;;34.18;24.43;100329.81;4451432;32;20055;-69
2022/08/22 13:40:00;;;;;;;;;;;;;;;34.48;23.91;100320.41;4450229;32;19949;-69
2022/08/22 13:42:28;;;;;;;;;;;;;;;34.07;24.59;100324.56;4452559;32;19960;-69
2022/08/22 13:44:55;;;;;;;;;;;;;;;34.34;24.06;100322.25;4451041;32;20001;-69
2022/08/22 13:47:22;;;;;;;;;;;;;;;34.29;23.67;100317.47;4449058;32;19981;-69
2022/08/22 13:49:51;;;;;;;;;;;;;;;34.64;23.29;100323.78;4449209;32;19962;-69
2022/08/22 13:54:54;;;;;;;;;;;;;;;33.71;23.95;100319.56;3969637;32;15722576;-69
2022/08/22 13:57:27;;;;;;;;;;;;;;;33.71;23.95;100319.56;4447222;32;20143;-69
2022/08/22 14:02:36;;;;;;;;;;;;;;;31.86;26.45;100314.38;3979208;31;15717455;-69
2022/08/22 14:05:05;;;;;;;;;;;;;;;31.86;26.45;100314.38;4461101;32;20027;-69
2022/08/22 14:10:10;;;;;;;;;;;;;;;30.44;29.03;100305.31;3965755;32;15728675;-69
2022/08/22 14:12:56;;;;;;;;;;;;;;;30.44;29.03;100305.31;4446925;32;20025;-70
2022/08/22 14:15:24;;;;;;;;;;;;;;;30.11;29.46;100295.75;4446954;32;19997;-70
2022/08/22 14:17:54;;;;;;;;;;;;;;;29.73;30.04;100292.16;4445730;32;19980;-69
2022/08/22 14:20:23;;;;;;;;;;;;;;;29.58;30.55;100295.09;4434231;32;20019;-70
2022/08/22 14:22:55;;;;;;;;;;;;;;;29.00;31.61;100296.00;4443297;32;19969;-69
2022/08/22 14:25:22;;;;;;;;;;;;;;;28.44;33.30;100289.69;4448572;32;20969;-69
2022/08/22 14:30:27;;;;;;;;;;;;;;;28.26;35.55;100294.44;3968134;32;15722713;-69
2022/08/22 14:32:56;;;;;;;;;;;;;;;28.26;35.55;100294.44;4446627;32;19960;-69
2022/08/22 14:35:26;;;;;;;;;;;;;;;27.47;36.34;100287.81;4447242;32;20643;-69
2022/08/22 14:37:52;;;;;;;;;;;;;;;27.32;38.49;100279.03;4447735;32;20197;-69
2022/08/22 14:40:21;;;;;;;;;;;;;;;27.38;39.46;100282.53;4446589;32;19984;-69
2022/08/22 14:42:51;;;;;;;;;;;;;;;27.19;41.12;100290.63;4447749;32;20450;-69
2022/08/22 14:45:27;;;;;;;;;;;;;;;26.86;44.05;100285.72;4440789;32;20665;-68
2022/08/22 14:50:37;;;;;;;;;;;;;;;25.34;49.56;100295.78;3957056;32;15723484;-68
2022/08/22 14:53:05;;;;;;;;;;;;;;;25.34;49.56;100295.78;4443855;32;19975;-68
2022/08/22 14:55:31;;;;;;;;;;;;;;;24.72;51.88;100291.59;4442823;32;19967;-68
2022/08/22 14:58:01;;;;;;;;;;;;;;;24.41;52.19;100281.59;4442550;32;20004;-68
2022/08/22 15:00:45;;;;;;;;;;;;;;;24.36;53.65;100291.06;4439537;32;20067;-67
2022/08/22 15:03:14;;;;;;;;;;;;;;;24.27;53.71;100302.97;4439527;32;19972;-67
2022/08/22 15:05:42;;;;;;;;;;;;;;;23.93;57.39;100315.44;4442150;32;19961;-68
2022/08/22 15:08:09;;;;;;;;;;;;;;;23.89;57.63;100312.06;4443115;32;19957;-68
2022/08/22 15:10:35;;;;;;;;;;;;;;;23.75;57.49;100310.41;4445266;32;20319;-68
2022/08/22 15:13:03;;;;;;;;;;;;;;;23.74;57.53;100295.28;4442202;32;20115;-67
2022/08/22 15:15:39;;;;;;;;;;;;;;;23.81;57.76;100303.31;4440524;32;19964;-66
2022/08/22 15:18:24;;;;;;;;;;;;;;;23.83;60.80;100306.41;4439583;32;19953;-66
2022/08/22 15:21:00;;;;;;;;;;;;;;;23.96;62.27;100297.13;4443117;32;20001;-66
2022/08/22 15:23:26;;;;;;;;;;;;;;;24.08;62.59;100302.19;4443964;32;19981;-66
2022/08/22 15:25:56;;;;;;;;;;;;;;;24.22;62.59;100300.97;4445289;32;20136;-66
2022/08/22 15:28:23;;;;;;;;;;;;;;;24.63;63.08;100304.25;4445378;32;20354;-66
2022/08/22 15:33:32;;;;;;;;;;;;;;;25.26;58.53;100294.87;3961909;32;15722650;-67
2022/08/22 15:36:18;;;;;;;;;;;;;;;25.26;58.53;100294.87;4441256;32;20007;-67
2022/08/22 15:44:23;;;;;;;;;;;;;;;25.85;53.85;100297.16;3962658;32;15723665;-67
2022/08/22 15:49:28;;;;;;;;;;;;;;;26.88;54.88;100289.56;3962940;32;15724687;-67
2022/08/22 16:07:58;;;;;;;;;;;;;;;27.54;51.19;100301.53;3955982;32;15721633;-68
2022/08/22 16:13:09;;;;;;;;;;;;;;;27.17;52.77;100304.87;3954800;32;15723605;-67
2022/08/22 16:15:53;;;;;;;;;;;;;;;27.17;52.77;100304.87;4437831;32;20349;-67
2022/08/22 16:29:23;;;;;;;;;;;;;;;25.69;57.78;100289.62;3951611;32;15723515;-69
2022/08/22 16:34:37;;;;;;;;;;;;;;;25.80;59.86;100286.50;3926132;32;15723879;-69
2022/08/22 16:37:23;;;;;;;;;;;;;;;25.80;59.86;100286.50;4405962;32;20608;-69
2022/08/22 16:40:04;;;;;;;;;;;;;;;25.55;60.40;100285.16;4403343;32;20048;-69
2022/08/22 16:42:48;;;;;;;;;;;;;;;25.51;62.43;100278.19;4403149;32;19958;-69
2022/08/22 16:45:17;;;;;;;;;;;;;;;25.33;60.94;100277.75;4404262;32;19946;-69
2022/08/22 16:47:45;;;;;;;;;;;;;;;25.27;61.00;100271.28;4401044;32;20304;-69
2022/08/22 16:58:25;;;;;;;;;;;;;;;25.05;61.78;100262.25;3953253;32;15726541;-68
2022/08/22 17:03:42;;;;;;;;;;;;;;;24.92;61.43;100276.62;3954954;32;15724545;-67
2022/08/22 17:16:45;;;;;;;;;;;;;;;24.87;62.67;100271.72;3955593;32;15725501;-68
2022/08/22 17:21:53;;;;;;;;;;;;;;;24.60;62.75;100261.41;3955517;32;15733567;-69
2022/08/22 17:27:22;;;;;;;;;;;;;;;24.90;62.73;100259.91;3955901;32;15723429;-69
2022/08/22 17:32:43;;;;;;;;;;;;;;;24.99;62.24;100261.56;3969353;31;15715874;-68
2022/08/22 17:35:28;;;;;;;;;;;;;;;24.99;62.24;100261.56;4453254;32;20039;-69
2022/08/22 17:38:07;;;;;;;;;;;;;;;24.29;63.28;100262.16;4454366;32;19953;-68
2022/08/22 17:40:40;;;;;;;;;;;;;;;24.36;62.99;100264.44;4454621;32;20018;-69
2022/08/22 17:43:26;;;;;;;;;;;;;;;24.08;64.06;100264.81;4455405;32;20025;-68
2022/08/22 17:46:11;;;;;;;;;;;;;;;24.06;64.11;100258.06;4455722;32;19983;-69
2022/08/22 17:48:44;;;;;;;;;;;;;;;24.07;64.45;100259.59;4455464;32;19964;-69
2022/08/22 17:51:15;;;;;;;;;;;;;;;24.14;64.16;100256.88;4457348;32;20339;-69
2022/08/22 17:56:23;;;;;;;;;;;;;;;24.89;62.82;100258.34;3973224;32;15720091;-69
2022/08/22 18:06:59;;;;;;;;;;;;;;;25.00;62.21;100263.91;3963268;32;15727563;-68
2022/08/22 18:09:34;;;;;;;;;;;;;;;25.00;62.21;100263.91;4443303;32;19957;-68
2022/08/22 18:12:04;;;;;;;;;;;;;;;24.57;63.14;100268.25;4447726;32;20032;-68
2022/08/22 18:14:49;;;;;;;;;;;;;;;24.57;62.92;100269.03;4443042;32;20631;-68
2022/08/22 18:17:19;;;;;;;;;;;;;;;24.69;62.59;100270.47;4445028;32;20267;-68
2022/08/22 18:22:33;;;;;;;;;;;;;;;25.19;61.48;100261.72;3961942;32;15723214;-68
2022/08/22 18:25:02;;;;;;;;;;;;;;;25.19;61.48;100261.72;4439042;32;20018;-69
2022/08/22 18:32:51;;;;;;;;;;;;;;;24.79;63.67;100262.97;3963239;32;15723584;-69